Time;durP1;ratioP1;P1;durP2;ratioP2;P2;SDS_P1;SDS_P2;PMS_P1;PMS_P2;Temp;Humidity;BMP_temperature;BMP_pressure;BME280_temperature;BME280_humidity;BME280_pressure;Samples;Min_cycle;Max_cycle;Signal;HPM_P1;HPM_P2
2022/02/01 15:11:23;;;;;;;13.32;6.22;;;;;;;0.48;100.00;93866.81;5108483;27;20216;-72
2022/02/01 15:13:48;;;;;;;9.15;5.65;;;;;;;0.53;100.00;93860.34;5103964;28;20539;-72
2022/02/01 15:16:14;;;;;;;14.90;5.90;;;;;;;0.43;100.00;93861.31;5066489;28;20020;-73
2022/02/01 15:18:40;;;;;;;8.88;6.05;;;;;;;0.48;100.00;93867.59;5102400;28;20524;-73
2022/02/01 15:21:05;;;;;;;15.88;5.03;;;;;;;0.55;100.00;93869.63;5122601;27;20157;-72
2022/02/01 15:23:30;;;;;;;16.27;6.95;;;;;;;0.40;100.00;93869.22;5085337;28;20552;-73
2022/02/01 15:25:56;;;;;;;14.60;6.68;;;;;;;0.50;100.00;93863.19;5084090;28;20025;-73
2022/02/01 15:28:22;;;;;;;14.00;6.80;;;;;;;0.43;100.00;93876.59;5093083;28;20444;-73
2022/02/01 15:30:48;;;;;;;14.60;7.10;;;;;;;0.55;100.00;93887.44;5084494;28;20047;-73
2022/02/01 15:33:15;;;;;;;17.30;7.78;;;;;;;0.47;100.00;93883.03;5063962;28;20032;-72
2022/02/01 15:35:41;;;;;;;18.52;9.30;;;;;;;0.55;100.00;93890.75;5085033;28;20024;-73
2022/02/01 15:38:11;;;;;;;17.95;8.60;;;;;;;0.64;100.00;93891.69;5083736;28;20039;-74
2022/02/01 15:57:27;;;;;;;22.80;10.95;;;;;;;0.40;100.00;93922.69;5081874;28;20405;-76
2022/02/01 15:59:55;;;;;;;16.35;11.27;;;;;;;0.35;100.00;93922.31;5102701;28;20028;-76
2022/02/01 16:02:21;;;;;;;18.63;11.13;;;;;;;0.36;100.00;93932.34;5076363;28;20038;-75
2022/02/01 16:04:55;;;;;;;19.25;11.35;;;;;;;0.35;100.00;93928.16;5060864;28;20600;-75
2022/02/01 16:07:23;;;;;;;25.90;13.50;;;;;;;0.55;100.00;93935.81;5043745;28;20025;-76
2022/02/01 16:12:24;;;;;;;24.48;14.07;;;;;;;0.22;100.00;93952.31;5055477;28;20033;-76
2022/02/01 16:14:49;;;;;;;30.08;13.68;;;;;;;0.13;100.00;93961.53;5079714;28;21961;-75
2022/02/01 16:17:15;;;;;;;28.98;13.07;;;;;;;0.22;100.00;93973.47;5075152;28;20032;-76
2022/02/01 16:19:40;;;;;;;24.67;13.57;;;;;;;0.20;100.00;93979.63;5044691;28;20141;-75
2022/02/01 16:22:06;;;;;;;24.88;13.23;;;;;;;0.18;100.00;93976.41;5049605;28;20028;-75
2022/02/01 16:24:36;;;;;;;26.83;14.48;;;;;;;0.19;100.00;93980.56;5041961;28;20036;-75
2022/02/01 16:27:03;;;;;;;23.77;12.88;;;;;;;0.16;100.00;93985.94;5062600;28;20127;-75
2022/02/01 16:29:28;;;;;;;24.73;11.82;;;;;;;0.09;100.00;93995.84;5039975;28;20044;-76
2022/02/01 16:31:53;;;;;;;23.00;11.15;;;;;;;0.15;100.00;93991.94;5052751;28;20110;-75
2022/02/01 16:34:19;;;;;;;25.63;13.50;;;;;;;0.05;100.00;93994.47;5055536;28;20033;-75
2022/02/01 16:36:44;;;;;;;33.40;16.92;;;;;;;0.14;100.00;93991.13;5051455;28;20097;-75
2022/02/01 16:39:11;;;;;;;32.78;18.83;;;;;;;0.10;100.00;93994.09;5062666;28;20882;-75
2022/02/01 16:41:37;;;;;;;35.92;20.00;;;;;;;0.11;100.00;93999.03;5070850;28;20450;-75
2022/02/01 16:44:04;;;;;;;30.67;19.45;;;;;;;0.15;100.00;94005.47;5046987;28;20029;-75
2022/02/01 16:46:34;;;;;;;34.75;20.23;;;;;;;0.14;100.00;94005.59;5063898;28;20033;-75
2022/02/01 16:49:01;;;;;;;38.40;19.00;;;;;;;0.04;100.00;94012.41;5028870;28;20044;-76
2022/02/01 16:51:27;;;;;;;30.02;19.48;;;;;;;0.10;100.00;93999.19;5048235;28;20020;-75
2022/02/01 16:53:56;;;;;;;34.53;18.90;;;;;;;-0.01;100.00;94005.19;5034703;28;20054;-75
2022/02/01 16:58:53;;;;;;;34.03;17.90;;;;;;;0.07;100.00;94005.31;5047866;28;20036;-75
2022/02/01 17:01:19;;;;;;;31.17;18.20;;;;;;;0.14;100.00;94016.59;5046464;28;20050;-75
2022/02/01 17:03:45;;;;;;;29.13;19.25;;;;;;;0.08;100.00;94021.41;5072045;28;20490;-75
2022/02/01 17:06:11;;;;;;;36.88;20.77;;;;;;;0.12;100.00;94025.28;5042257;28;20086;-75
2022/02/01 17:08:36;;;;;;;36.33;21.05;;;;;;;0.02;100.00;94027.00;5046367;28;20025;-76
2022/02/01 17:14:05;;;;;;;36.67;21.17;;;;;;;-0.04;100.00;94038.53;5006807;28;20037;-75
2022/02/01 17:19:29;;;;;;;32.13;17.73;;;;;;;0.10;100.00;94042.44;5041729;28;20041;-75
2022/02/01 17:21:55;;;;;;;34.47;19.58;;;;;;;0.10;100.00;94042.44;5057619;28;20515;-75
2022/02/01 17:24:22;;;;;;;26.17;17.02;;;;;;;0.21;100.00;94039.78;5062252;28;20104;-75
2022/02/01 17:26:49;;;;;;;25.45;16.55;;;;;;;0.15;100.00;94038.56;5039417;28;20025;-75
2022/02/01 17:29:15;;;;;;;32.95;17.42;;;;;;;-0.07;100.00;94033.69;5046676;28;20574;-75
2022/02/01 17:31:40;;;;;;;29.40;17.08;;;;;;;-0.03;100.00;94045.19;5067302;28;20124;-75
2022/02/01 17:34:06;;;;;;;32.78;17.45;;;;;;;0.13;100.00;94047.28;5044452;28;20035;-75
2022/02/01 17:36:32;;;;;;;32.20;18.27;;;;;;;0.05;100.00;94052.19;5031568;28;20064;-75
2022/02/01 17:38:58;;;;;;;25.42;16.33;;;;;;;0.13;100.00;94055.69;5040563;28;20047;-75
2022/02/01 17:41:25;;;;;;;30.35;17.50;;;;;;;0.10;100.00;94063.59;5050061;28;20433;-74
2022/02/01 17:43:52;;;;;;;25.15;16.33;;;;;;;-0.02;100.00;94059.53;5042622;28;20448;-75
2022/02/01 17:46:18;;;;;;;24.30;15.30;;;;;;;-0.06;100.00;94060.72;5057412;28;20021;-75
2022/02/01 17:48:45;;;;;;;32.42;15.95;;;;;;;-0.02;100.00;94067.97;5069396;28;20029;-75
2022/02/01 17:51:26;;;;;;;24.95;15.85;;;;;;;0.01;100.00;94074.53;5069512;28;20470;-75
2022/02/01 17:56:17;;;;;;;28.92;17.13;;;;;;;0.08;100.00;94085.81;5056105;28;20023;-75
2022/02/01 17:58:47;;;;;;;31.60;18.67;;;;;;;0.15;100.00;94083.56;5045704;28;20063;-75
2022/02/01 18:01:12;;;;;;;;;;;;;;;-0.05;100.00;94072.53;5033749;28;20030;-75
2022/02/01 18:03:38;;;;;;;28.88;14.60;;;;;;;-0.02;100.00;94074.81;5055049;28;19912;-75
2022/02/01 18:06:04;;;;;;;29.08;15.13;;;;;;;0.08;100.00;94078.19;5055826;28;20055;-74
2022/02/01 18:08:30;;;;;;;18.80;13.85;;;;;;;0.09;100.00;94089.19;5044987;28;20080;-75
2022/02/01 18:10:57;;;;;;;23.30;13.45;;;;;;;0.01;100.00;94082.19;5037872;28;20050;-74
2022/02/01 18:15:55;;;;;;;19.80;13.73;;;;;;;0.07;100.00;94088.47;5023731;28;20040;-74
2022/02/01 18:18:21;;;;;;;18.23;13.50;;;;;;;0.07;100.00;94085.94;5034137;28;20495;-74
2022/02/01 18:20:47;;;;;;;23.42;13.75;;;;;;;-0.07;100.00;94084.56;5039780;28;20029;-74
2022/02/01 18:23:12;;;;;;;26.88;13.38;;;;;;;-0.07;100.00;94082.03;5026058;28;20034;-74
2022/02/01 18:25:38;;;;;;;28.42;14.45;;;;;;;-0.07;100.00;94094.75;5025379;28;20033;-74
2022/02/01 18:28:03;;;;;;;26.88;16.05;;;;;;;-0.04;100.00;94102.13;5026097;28;20032;-74
2022/02/01 18:30:30;;;;;;;24.55;13.35;;;;;;;0.04;100.00;94106.56;5037838;28;20020;-74
2022/02/01 18:32:56;;;;;;;22.92;13.48;;;;;;;-0.05;100.00;94105.59;5009862;28;20029;-75
2022/02/01 18:35:24;;;;;;;24.23;16.00;;;;;;;-0.02;100.00;94106.16;5025193;28;20017;-74
2022/02/01 18:37:56;;;;;;;25.23;14.50;;;;;;;-0.07;100.00;94099.84;5009677;28;20124;-74
2022/02/01 18:40:26;;;;;;;24.85;15.32;;;;;;;-0.05;100.00;94097.97;5029897;28;20069;-75
2022/02/01 18:43:01;;;;;;;21.00;12.77;;;;;;;-0.11;100.00;94106.91;5017675;28;20048;-74
2022/02/01 18:45:30;;;;;;;21.08;12.50;;;;;;;-0.10;100.00;94100.09;5041940;28;20079;-74
2022/02/01 18:48:02;;;;;;;25.95;11.88;;;;;;;-0.19;100.00;94105.94;5026550;28;20026;-74
2022/02/01 18:53:04;;;;;;;23.10;14.38;;;;;;;-0.06;100.00;94111.59;5034450;28;20470;-74
2022/02/01 18:56:13;;;;;;;20.48;13.32;;;;;;;-0.07;100.00;94117.66;5026349;28;20026;-74
2022/02/01 18:58:18;;;;;;;25.30;14.25;;;;;;;-0.10;100.00;94105.19;5023781;28;20045;-75
2022/02/01 19:07:48;;;;;;;17.40;10.77;;;;;;;-0.11;100.00;94108.66;5046463;28;20047;-75
2022/02/01 19:11:44;;;;;;;17.80;10.20;;;;;;;-0.13;100.00;94110.53;5026523;28;20042;-75
2022/02/01 19:12:20;;;;;;;17.92;10.73;;;;;;;-0.09;100.00;94110.13;5040855;28;20129;-75
2022/02/01 19:14:46;;;;;;;24.48;12.20;;;;;;;-0.12;100.00;94107.03;5056779;28;20086;-75
2022/02/01 19:17:13;;;;;;;25.40;12.13;;;;;;;-0.07;100.00;94102.38;5040471;28;20530;-75
2022/02/01 19:19:40;;;;;;;27.23;12.52;;;;;;;-0.10;100.00;94105.19;5058177;28;20021;-75
2022/02/01 19:22:06;;;;;;;18.15;10.02;;;;;;;-0.01;100.00;94104.41;5056730;28;20043;-75
2022/02/01 19:24:35;;;;;;;15.38;8.25;;;;;;;-0.09;100.00;94101.69;5072676;28;20029;-76
2022/02/01 19:27:01;;;;;;;16.60;9.60;;;;;;;-0.05;100.00;94108.13;5026940;28;20379;-75
2022/02/01 19:29:27;;;;;;;15.15;8.52;;;;;;;-0.06;100.00;94106.50;5035929;28;20044;-75
2022/02/01 19:31:55;;;;;;;22.83;11.35;;;;;;;0.00;100.00;94106.03;5021291;28;20025;-75
2022/02/01 19:34:26;;;;;;;18.33;9.63;;;;;;;-0.04;100.00;94100.41;5023892;28;20037;-75
2022/02/01 19:36:52;;;;;;;16.75;10.43;;;;;;;-0.06;100.00;94097.16;5037583;28;20037;-75
2022/02/01 19:39:19;;;;;;;15.07;7.53;;;;;;;-0.19;100.00;94088.13;5047712;28;20391;-76
2022/02/01 19:41:47;;;;;;;16.80;8.73;;;;;;;-0.07;100.00;94087.13;5023406;28;20033;-76
2022/02/01 19:44:23;;;;;;;13.82;8.07;;;;;;;-0.08;100.00;94091.41;5059361;28;20573;-75
2022/02/01 19:46:54;;;;;;;20.58;9.60;;;;;;;-0.11;100.00;94095.94;5040887;28;20040;-76
2022/02/01 19:49:19;;;;;;;23.05;9.77;;;;;;;-0.11;100.00;94088.31;5039073;28;20043;-76
2022/02/01 19:51:45;;;;;;;20.13;10.70;;;;;;;-0.04;100.00;94090.22;5035980;28;20041;-76
2022/02/01 19:54:12;;;;;;;24.00;12.00;;;;;;;-0.10;100.00;94090.69;5056685;28;20021;-75
2022/02/01 19:56:37;;;;;;;20.50;13.13;;;;;;;-0.09;100.00;94087.22;5041473;28;20530;-76
2022/02/01 19:59:08;;;;;;;23.88;12.88;;;;;;;0.03;100.00;94089.69;5044148;28;20021;-76
2022/02/01 20:01:38;;;;;;;22.45;12.88;;;;;;;0.00;100.00;94091.53;5028272;28;20025;-76
2022/02/01 20:04:09;;;;;;;22.65;13.27;;;;;;;-0.11;100.00;94083.22;5043064;28;20024;-76
2022/02/01 20:06:40;;;;;;;26.60;14.23;;;;;;;-0.02;100.00;94092.63;5039553;28;20036;-76
2022/02/01 20:09:12;;;;;;;26.58;14.73;;;;;;;-0.10;100.00;94077.19;5059105;28;20048;-76
2022/02/01 20:11:39;;;;;;;32.03;14.75;;;;;;;-0.18;100.00;94066.84;5075885;28;20079;-76
2022/02/01 20:14:05;;;;;;;24.77;13.98;;;;;;;-0.20;100.00;94076.34;5047097;28;20528;-76
2022/02/01 20:16:31;;;;;;;26.98;15.43;;;;;;;-0.12;100.00;94086.69;5045817;28;20028;-76
2022/02/01 20:18:56;;;;;;;31.00;15.95;;;;;;;-0.13;100.00;94080.00;5041875;28;20030;-76
2022/02/01 20:21:22;;;;;;;26.33;16.05;;;;;;;-0.05;100.00;94083.50;5070985;28;20425;-77
2022/02/01 20:23:47;;;;;;;25.92;14.48;;;;;;;-0.10;100.00;94090.69;5043979;28;21413;-76
2022/02/01 20:26:13;;;;;;;26.02;14.52;;;;;;;-0.13;100.00;94088.41;5041585;28;20031;-76
2022/02/01 20:28:39;;;;;;;28.52;15.68;;;;;;;-0.10;100.00;94093.25;5041582;28;20024;-76
2022/02/01 20:31:04;;;;;;;18.58;12.55;;;;;;;-0.11;100.00;94088.31;5037849;28;20037;-76
2022/02/01 20:33:31;;;;;;;31.42;15.48;;;;;;;-0.11;100.00;94086.56;5053980;28;20031;-76
2022/02/01 20:35:59;;;;;;;34.05;15.88;;;;;;;-0.12;100.00;94079.06;5054682;28;20119;-77
2022/02/01 20:38:27;;;;;;;26.02;14.32;;;;;;;-0.12;100.00;94086.69;5070606;28;20497;-77
2022/02/01 20:40:55;;;;;;;27.92;14.23;;;;;;;-0.12;100.00;94076.50;5054374;28;20138;-77
2022/02/01 20:43:21;;;;;;;22.73;13.15;;;;;;;-0.08;100.00;94073.59;5052991;28;20463;-76
2022/02/01 20:45:47;;;;;;;24.85;13.95;;;;;;;-0.06;100.00;94076.00;5053244;28;20024;-76
2022/02/01 20:48:13;;;;;;;30.33;15.65;;;;;;;-0.10;100.00;94077.19;5055788;28;20037;-76
2022/02/01 20:50:39;;;;;;;31.85;17.13;;;;;;;-0.12;100.00;94082.41;5061436;28;20060;-76
2022/02/01 20:53:05;;;;;;;31.00;15.23;;;;;;;-0.11;100.00;94078.94;5073695;28;20033;-77
2022/02/01 20:55:31;;;;;;;33.88;15.07;;;;;;;-0.06;100.00;94076.81;5053683;28;20024;-76
2022/02/01 20:57:57;;;;;;;27.92;13.68;;;;;;;-0.09;100.00;94074.50;5054643;28;20470;-75
2022/02/01 21:00:22;;;;;;;30.70;14.18;;;;;;;-0.19;100.00;94076.22;5055709;28;20021;-76
2022/02/01 21:02:48;;;;;;;29.67;11.88;;;;;;;-0.13;100.00;94080.00;5055107;28;20390;-76
2022/02/01 21:05:14;;;;;;;23.63;13.75;;;;;;;-0.05;100.00;94080.16;5073637;28;20016;-76
2022/02/01 21:07:40;;;;;;;28.02;13.32;;;;;;;-0.05;100.00;94087.78;5053713;28;20152;-76
2022/02/01 21:10:07;;;;;;;34.92;16.75;;;;;;;-0.17;100.00;94092.16;5031287;28;20437;-77
2022/02/01 21:12:36;;;;;;;29.90;13.07;;;;;;;-0.10;100.00;94092.47;5061391;28;20040;-77
2022/02/01 21:15:02;;;;;;;28.52;13.68;;;;;;;-0.11;100.00;94089.13;5042367;28;20040;-77
2022/02/01 21:17:27;;;;;;;23.85;13.25;;;;;;;-0.10;100.00;94089.91;5045209;28;20020;-77
2022/02/01 21:19:52;;;;;;;30.17;13.55;;;;;;;-0.06;100.00;94081.88;5052978;28;20036;-76
2022/02/01 21:22:19;;;;;;;24.42;11.95;;;;;;;-0.12;100.00;94082.41;5071268;28;20021;-76
2022/02/01 21:24:44;;;;;;;28.48;13.23;;;;;;;-0.13;100.00;94083.31;5027783;28;20814;-76
2022/02/01 21:27:10;;;;;;;23.92;12.07;;;;;;;-0.05;100.00;94088.59;5071143;28;20135;-77
2022/02/01 21:29:39;;;;;;;21.98;11.50;;;;;;;-0.15;100.00;94082.66;5043742;28;20608;-76
2022/02/01 21:32:08;;;;;;;22.25;11.48;;;;;;;-0.12;100.00;94089.22;5045521;28;20689;-77
2022/02/01 21:34:34;;;;;;;26.15;11.93;;;;;;;-0.07;100.00;94090.47;5040176;28;20064;-76
2022/02/01 21:37:00;;;;;;;33.47;15.90;;;;;;;-0.12;100.00;94094.31;5047804;28;20032;-77
2022/02/01 21:39:26;;;;;;;29.25;13.70;;;;;;;-0.05;100.00;94100.50;5036857;28;20048;-77
2022/02/01 21:41:53;;;;;;;28.08;13.57;;;;;;;-0.07;100.00;94095.56;5040538;28;20067;-77
2022/02/01 21:44:19;;;;;;;25.73;13.18;;;;;;;-0.09;100.00;94091.50;5060875;28;20021;-76
2022/02/01 21:46:44;;;;;;;28.00;13.07;;;;;;;-0.13;100.00;94095.28;5063111;28;20045;-76
2022/02/01 21:49:10;;;;;;;25.70;13.48;;;;;;;-0.22;100.00;94085.84;5044761;28;20398;-76
2022/02/01 21:51:36;;;;;;;28.08;13.90;;;;;;;-0.11;100.00;94093.38;5036766;28;20030;-75
2022/02/01 21:54:02;;;;;;;25.13;14.20;;;;;;;-0.11;100.00;94083.22;5046767;28;20037;-75
2022/02/01 21:56:28;;;;;;;24.55;13.73;;;;;;;-0.05;100.00;94087.78;5010742;28;20026;-75
2022/02/01 21:58:54;;;;;;;23.65;14.85;;;;;;;-0.12;100.00;94087.50;5057426;28;20113;-75
2022/02/01 22:01:20;;;;;;;25.35;13.70;;;;;;;-0.01;100.00;94076.44;5059158;28;20079;-76
2022/02/01 22:03:47;;;;;;;26.23;14.20;;;;;;;-0.02;100.00;94074.81;5025588;28;20087;-75
2022/02/01 22:06:14;;;;;;;21.55;12.98;;;;;;;-0.09;100.00;94068.63;5060246;28;20425;-77
2022/02/01 22:08:39;;;;;;;30.15;14.45;;;;;;;-0.02;100.00;94073.06;5041481;28;20025;-77
2022/02/01 22:11:05;;;;;;;25.73;15.23;;;;;;;-0.08;100.00;94065.97;5068005;28;20051;-77
2022/02/01 22:13:32;;;;;;;34.20;14.05;;;;;;;-0.06;100.00;94060.72;5048151;28;20457;-77
2022/02/01 22:15:58;;;;;;;29.70;14.57;;;;;;;-0.07;100.00;94059.94;5067676;28;20024;-77
2022/02/01 22:18:24;;;;;;;31.55;14.68;;;;;;;-0.06;100.00;94061.53;5045822;28;20040;-76
2022/02/01 22:20:50;;;;;;;28.85;16.13;;;;;;;-0.02;100.00;94062.09;5045285;28;20020;-76
2022/02/01 22:23:15;;;;;;;35.63;15.90;;;;;;;0.01;100.00;94072.00;5029926;28;20382;-76
2022/02/01 22:25:45;;;;;;;26.05;13.73;;;;;;;-0.03;100.00;94055.38;5029162;28;20104;-76
2022/02/01 22:28:11;;;;;;;23.63;14.53;;;;;;;-0.06;100.00;94060.72;5029175;28;20020;-76
2022/02/01 22:30:38;;;;;;;32.05;17.00;;;;;;;-0.11;100.00;94047.59;5029270;28;20291;-77
2022/02/01 22:33:07;;;;;;;29.55;16.55;;;;;;;-0.13;100.00;94054.56;5030329;28;20033;-76
2022/02/01 22:35:33;;;;;;;27.95;16.67;;;;;;;-0.05;100.00;94047.09;5047515;28;20028;-76
2022/02/01 22:37:59;;;;;;;34.28;18.85;;;;;;;-0.14;100.00;94048.66;5062402;28;20398;-76
2022/02/01 22:40:24;;;;;;;28.05;17.25;;;;;;;-0.17;100.00;94051.47;5053548;28;20036;-76
2022/02/01 22:42:51;;;;;;;33.80;18.05;;;;;;;-0.10;100.00;94049.22;5048542;28;20039;-76
2022/02/01 22:45:17;;;;;;;28.35;16.38;;;;;;;-0.07;100.00;94048.97;5067172;28;20048;-76
2022/02/01 22:47:43;;;;;;;30.58;18.88;;;;;;;-0.04;100.00;94048.69;5048212;28;20060;-75
2022/02/01 22:50:08;;;;;;;34.20;19.02;;;;;;;-0.14;100.00;94032.59;5066589;28;20051;-75
2022/02/01 22:52:34;;;;;;;33.88;18.05;;;;;;;-0.14;100.00;94038.50;5057502;28;20017;-75
2022/02/01 22:55:00;;;;;;;27.75;13.95;;;;;;;0.00;100.00;94044.97;5030403;28;20414;-75
2022/02/01 22:57:25;;;;;;;26.42;14.50;;;;;;;-0.01;100.00;94033.97;5049711;28;20025;-76
2022/02/01 22:59:51;;;;;;;25.80;15.48;;;;;;;-0.11;100.00;94032.34;5044933;28;20033;-76
2022/02/01 23:02:17;;;;;;;26.40;12.50;;;;;;;-0.07;100.00;94023.53;5036317;28;20479;-75
2022/02/01 23:04:42;;;;;;;22.42;11.10;;;;;;;-0.09;100.00;94015.19;5045800;28;20028;-75
2022/02/01 23:07:11;;;;;;;22.50;11.52;;;;;;;-0.08;100.00;94027.00;5066389;28;20485;-75
2022/02/01 23:15:19;;;;;;;20.42;11.20;;;;;;;-0.09;100.00;94021.09;5050387;28;20093;-75
2022/02/01 23:17:49;;;;;;;21.75;11.95;;;;;;;-0.06;100.00;94009.84;5066212;28;20036;-75
2022/02/01 23:20:20;;;;;;;23.90;12.23;;;;;;;0.03;100.00;94014.19;5068206;28;20108;-74
2022/02/01 23:22:47;;;;;;;21.80;12.50;;;;;;;0.02;100.00;94019.38;5066729;28;20474;-74
2022/02/01 23:25:13;;;;;;;18.63;12.38;;;;;;;-0.01;100.00;94015.38;5049115;28;20084;-74
2022/02/01 23:27:41;;;;;;;17.00;10.25;;;;;;;-0.22;100.00;94014.63;5049431;28;20056;-75
2022/02/01 23:30:08;;;;;;;29.80;13.40;;;;;;;-0.13;100.00;94014.66;5048453;28;20036;-75
2022/02/01 23:38:20;;;;;;;23.40;13.13;;;;;;;0.02;100.00;94027.81;5050685;28;20028;-75
2022/02/01 23:48:25;;;;;;;26.23;13.65;;;;;;;0.02;100.00;94032.09;5050674;28;20121;-76
2022/02/01 23:50:50;;;;;;;18.23;13.38;;;;;;;0.01;100.00;94023.66;5049569;28;20117;-76
2022/02/01 23:53:16;;;;;;;23.25;12.80;;;;;;;-0.06;100.00;94020.03;5051124;28;20234;-75
2022/02/01 23:55:46;;;;;;;21.55;13.15;;;;;;;-0.07;100.00;94013.34;5049139;28;20136;-76
2022/02/01 23:58:21;;;;;;;22.30;13.60;;;;;;;-0.04;100.00;94008.81;5065657;28;20029;-76
